Adelphi, Maryland
Current Conditions -  °F | °C
As of 12:20 PM on Sunday 23 Nov 2014 (Local Time) from KCGS Reporting Station
Clear Clear  
Wind Chill: 50°   Ceiling: Unl
Heat Index: 50°   Visibility: 10mi
Dew Point: 23°   Wind: 3mph
Humidity: 35%   Direction: 220°SW
Pressure: 30.17"   Gusts: NA
Location:  39°N, 76.97°W
Report Text: KCGS 231720Z AUTO 22003KT 10SM CLR 10/M05 A3017 RMK AO1
Loading
Personal Weather Stations






























Interactive Weather Map New forecast layout! Learn more

10-Day Weather Forecast

Advertisements
Track Severe Weather on mobile